createdAt,value
2023-03-26T00:02:06.343Z,28.15
2023-03-26T00:04:38.375Z,30.17
2023-03-26T00:07:05.661Z,27.58
2023-03-26T00:09:39.017Z,28.05
2023-03-26T00:12:06.436Z,24.23
2023-03-26T00:14:35.362Z,25.83
2023-03-26T00:17:04.307Z,21.85
2023-03-26T00:19:33.900Z,32.38
2023-03-26T00:22:03.579Z,36.55
2023-03-26T00:24:31.051Z,24.42
2023-03-26T00:26:59.650Z,31.98
2023-03-26T00:29:28.157Z,33.83
2023-03-26T00:31:55.565Z,27.17
2023-03-26T00:34:23.529Z,30.95
2023-03-26T00:36:55.189Z,32.67
2023-03-26T00:39:33.650Z,28.63
2023-03-26T00:42:06.977Z,28.45
2023-03-26T00:44:35.822Z,26.90
2023-03-26T00:47:03.685Z,33.53
2023-03-26T00:49:32.015Z,40.13
2023-03-26T00:51:59.315Z,30.05
2023-03-26T00:54:27.104Z,23.02
2023-03-26T00:56:56.022Z,28.33
2023-03-26T00:59:23.690Z,25.25
2023-03-26T01:01:55.065Z,22.20
2023-03-26T01:04:31.793Z,31.67
2023-03-26T01:07:10.616Z,31.00
2023-03-26T01:09:50.347Z,35.13
2023-03-26T01:12:31.884Z,28.83
2023-03-26T01:15:02.321Z,22.98
2023-03-26T01:17:34.217Z,30.13
2023-03-26T01:20:38.849Z,34.83
2023-03-26T01:23:08.837Z,24.08
2023-03-26T01:25:51.200Z,27.05
2023-03-26T01:28:20.142Z,24.33
2023-03-26T01:31:48.177Z,28.83
2023-03-26T01:35:18.444Z,31.75
2023-03-26T01:38:26.164Z,22.02
2023-03-26T01:41:31.170Z,32.75
2023-03-26T01:44:17.122Z,28.33
2023-03-26T01:46:47.685Z,29.52
2023-03-26T01:49:15.334Z,27.02
2023-03-26T01:51:43.280Z,20.63
2023-03-26T01:54:22.837Z,28.10
2023-03-26T01:57:23.766Z,19.70
2023-03-26T02:00:18.414Z,32.67
2023-03-26T02:03:24.686Z,20.17
2023-03-26T02:06:23.639Z,30.52
2023-03-26T02:09:05.780Z,32.47
2023-03-26T02:11:36.076Z,36.20
2023-03-26T02:14:08.313Z,31.17
2023-03-26T02:16:35.842Z,25.45
2023-03-26T02:19:05.078Z,20.23
2023-03-26T02:21:34.122Z,31.58
2023-03-26T02:24:05.153Z,21.95
2023-03-26T02:26:37.782Z,23.48
2023-03-26T02:29:20.290Z,27.75
2023-03-26T02:31:49.639Z,27.30
2023-03-26T02:34:17.652Z,22.73
2023-03-26T02:36:53.315Z,29.33
2023-03-26T02:39:21.387Z,33.63
2023-03-26T02:41:59.588Z,22.50
2023-03-26T02:44:29.726Z,25.33
2023-03-26T02:46:59.900Z,21.42
2023-03-26T02:49:51.681Z,20.08
2023-03-26T02:52:37.038Z,23.73
2023-03-26T02:55:07.380Z,27.00
2023-03-26T02:57:35.719Z,30.45
2023-03-26T03:00:17.112Z,28.85
2023-03-26T03:03:06.652Z,21.67
2023-03-26T03:05:56.363Z,27.88
2023-03-26T03:08:34.109Z,25.02
2023-03-26T03:11:22.062Z,24.80
2023-03-26T03:13:52.338Z,24.48
2023-03-26T03:16:25.767Z,28.10
2023-03-26T03:18:57.802Z,20.23
2023-03-26T03:21:32.427Z,21.63
2023-03-26T03:24:00.168Z,21.38
2023-03-26T03:26:31.664Z,26.55
2023-03-26T03:29:09.358Z,25.97
2023-03-26T03:31:36.695Z,29.88
2023-03-26T03:34:06.408Z,24.95
2023-03-26T03:36:41.210Z,30.15
2023-03-26T03:39:19.776Z,20.13
2023-03-26T03:41:49.324Z,26.08
2023-03-26T03:44:17.682Z,24.70
2023-03-26T03:46:45.512Z,24.13
2023-03-26T03:49:14.135Z,19.63
2023-03-26T03:51:42.566Z,24.70
2023-03-26T03:54:22.658Z,22.75
2023-03-26T03:57:12.202Z,20.48
2023-03-26T03:59:47.802Z,22.48
2023-03-26T04:02:30.661Z,19.30
2023-03-26T04:05:04.458Z,25.17
2023-03-26T04:07:34.062Z,18.75
2023-03-26T04:10:10.363Z,18.75
2023-03-26T04:13:03.752Z,19.50
2023-03-26T04:15:59.522Z,19.85
2023-03-26T04:18:32.372Z,22.58
2023-03-26T04:21:07.846Z,18.23
2023-03-26T04:23:38.242Z,22.50
2023-03-26T04:26:24.452Z,19.83
2023-03-26T04:29:17.304Z,18.02
2023-03-26T04:31:47.245Z,21.98
2023-03-26T04:34:26.313Z,16.13
2023-03-26T04:37:07.175Z,16.08
2023-03-26T04:39:41.823Z,17.77
2023-03-26T04:42:29.656Z,18.42
2023-03-26T04:45:17.984Z,17.42
2023-03-26T04:47:50.277Z,18.67
2023-03-26T04:50:18.115Z,19.35
2023-03-26T04:52:45.996Z,19.65
2023-03-26T04:55:47.164Z,17.73
2023-03-26T04:58:30.256Z,15.60
2023-03-26T05:01:11.158Z,21.92
2023-03-26T05:03:45.851Z,12.27
2023-03-26T05:06:17.673Z,23.55
2023-03-26T05:08:46.297Z,25.80
2023-03-26T05:11:30.857Z,20.63
2023-03-26T05:13:58.530Z,14.15
2023-03-26T05:16:28.725Z,17.77
2023-03-26T05:19:01.063Z,23.30
2023-03-26T05:21:40.832Z,21.40
2023-03-26T05:24:08.435Z,21.35
2023-03-26T05:26:38.611Z,19.25
2023-03-26T05:29:06.713Z,18.45
2023-03-26T05:31:42.761Z,16.55
2023-03-26T05:34:11.460Z,17.30
2023-03-26T05:36:38.942Z,25.30
2023-03-26T05:39:27.379Z,19.67
2023-03-26T05:42:12.721Z,16.52
2023-03-26T05:45:15.021Z,15.82
2023-03-26T05:47:50.168Z,22.85
2023-03-26T05:50:17.971Z,21.15
2023-03-26T05:52:49.498Z,19.98
2023-03-26T05:55:35.626Z,16.55
2023-03-26T05:58:29.653Z,19.02
2023-03-26T06:01:19.656Z,17.23
2023-03-26T06:04:19.086Z,17.08
2023-03-26T06:07:23.446Z,21.48
2023-03-26T06:10:11.383Z,20.30
2023-03-26T06:13:03.482Z,17.42
2023-03-26T06:15:32.200Z,18.45
2023-03-26T06:18:15.387Z,24.55
2023-03-26T06:21:02.489Z,20.17
2023-03-26T06:23:42.763Z,20.05
2023-03-26T06:26:31.241Z,17.23
2023-03-26T06:29:20.220Z,15.85
2023-03-26T06:32:12.399Z,19.58
2023-03-26T06:34:59.451Z,19.38
2023-03-26T06:37:28.593Z,21.98
2023-03-26T06:40:15.963Z,16.27
2023-03-26T06:43:09.226Z,19.45
2023-03-26T06:46:02.780Z,17.45
2023-03-26T06:48:59.745Z,19.60
2023-03-26T06:51:44.086Z,24.15
2023-03-26T06:54:30.827Z,20.27
2023-03-26T06:57:08.579Z,21.63
2023-03-26T06:59:57.475Z,23.90
2023-03-26T07:02:43.689Z,15.52
2023-03-26T07:05:31.256Z,24.10
2023-03-26T07:08:20.963Z,19.33
2023-03-26T07:11:08.683Z,20.15
2023-03-26T07:13:56.705Z,17.95
2023-03-26T07:16:43.914Z,15.00
2023-03-26T07:19:31.712Z,22.52
2023-03-26T07:22:02.277Z,25.60
2023-03-26T07:24:53.183Z,27.40
2023-03-26T07:28:24.384Z,21.17
2023-03-26T07:31:44.637Z,21.23
2023-03-26T07:35:00.502Z,22.65
2023-03-26T07:37:52.364Z,18.60
2023-03-26T07:41:20.317Z,17.40
2023-03-26T07:44:48.515Z,15.65
2023-03-26T07:47:33.880Z,18.08
2023-03-26T07:50:26.406Z,15.55
2023-03-26T07:53:26.523Z,19.23
2023-03-26T07:56:42.126Z,15.25
2023-03-26T08:00:12.911Z,17.23
2023-03-26T08:03:19.818Z,13.43
2023-03-26T08:06:24.146Z,16.85
2023-03-26T08:09:40.453Z,18.92
2023-03-26T08:13:03.567Z,23.25
2023-03-26T08:16:19.432Z,16.20
2023-03-26T08:19:34.939Z,16.67
2023-03-26T08:22:46.222Z,17.23
2023-03-26T08:25:40.906Z,14.90
2023-03-26T08:28:33.715Z,14.50
2023-03-26T08:31:03.205Z,12.38
2023-03-26T08:33:32.452Z,13.90
2023-03-26T08:36:02.101Z,11.75
2023-03-26T08:38:36.834Z,16.25
2023-03-26T08:41:17.035Z,18.00
2023-03-26T08:44:47.819Z,17.70
2023-03-26T08:48:11.791Z,19.42
2023-03-26T08:51:17.044Z,16.25
2023-03-26T08:54:42.790Z,17.70
2023-03-26T08:58:08.867Z,14.52
2023-03-26T09:01:40.902Z,13.27
2023-03-26T09:05:18.227Z,18.13
2023-03-26T09:08:54.452Z,14.20
2023-03-26T09:12:13.058Z,15.93
2023-03-26T09:15:21.352Z,13.38
2023-03-26T09:18:56.059Z,18.92
2023-03-26T09:22:18.606Z,14.20
2023-03-26T09:25:34.623Z,18.73
2023-03-26T09:29:07.746Z,19.42
2023-03-26T09:32:17.667Z,18.40
2023-03-26T09:35:14.985Z,15.13
2023-03-26T09:38:19.603Z,13.90
2023-03-26T09:41:44.732Z,15.70
2023-03-26T09:44:35.948Z,12.98
2023-03-26T09:48:15.817Z,14.93
2023-03-26T09:51:14.107Z,13.35
2023-03-26T09:54:35.505Z,12.15
2023-03-26T09:57:59.989Z,12.57
2023-03-26T10:01:40.864Z,10.90
2023-03-26T10:05:11.980Z,13.38
2023-03-26T10:08:52.261Z,13.68
2023-03-26T10:11:33.371Z,11.27
2023-03-26T10:14:48.815Z,10.75
2023-03-26T10:18:28.250Z,10.85
2023-03-26T10:21:47.099Z,12.95
2023-03-26T10:25:08.285Z,9.85
2023-03-26T10:28:19.284Z,7.25
2023-03-26T10:31:22.394Z,7.20
2023-03-26T10:34:54.345Z,8.18
2023-03-26T10:38:21.304Z,8.32
2023-03-26T10:41:25.457Z,10.43
2023-03-26T10:44:46.830Z,11.55
2023-03-26T10:47:49.247Z,7.20
2023-03-26T10:51:25.247Z,7.00
2023-03-26T10:54:44.917Z,7.78
2023-03-26T10:57:58.544Z,6.50
2023-03-26T11:00:29.258Z,6.20
2023-03-26T11:03:16.064Z,8.77
2023-03-26T11:06:17.958Z,11.07
2023-03-26T11:09:14.808Z,10.05
2023-03-26T11:12:26.275Z,6.05
2023-03-26T11:15:53.192Z,7.32
2023-03-26T11:18:52.017Z,8.13
2023-03-26T11:22:02.471Z,8.65
2023-03-26T11:25:21.245Z,8.65
2023-03-26T11:29:04.064Z,9.57
2023-03-26T11:38:42.712Z,7.13
2023-03-26T11:41:41.869Z,7.75
2023-03-26T11:44:41.118Z,8.13
2023-03-26T11:47:19.358Z,7.90
2023-03-26T11:50:02.194Z,10.85
2023-03-26T11:52:32.559Z,9.50
2023-03-26T11:55:16.348Z,5.10
2023-03-26T12:00:40.842Z,7.57
2023-03-26T12:03:24.695Z,8.65
2023-03-26T12:06:04.887Z,5.35
2023-03-26T12:08:41.765Z,5.97
2023-03-26T12:11:18.845Z,7.40
2023-03-26T12:14:01.766Z,5.03
2023-03-26T12:16:37.422Z,6.95
2023-03-26T12:19:25.305Z,7.78
2023-03-26T12:21:55.762Z,7.80
2023-03-26T12:24:42.536Z,8.40
2023-03-26T12:27:30.278Z,6.20
2023-03-26T12:30:26.247Z,5.65
2023-03-26T12:33:05.689Z,6.82
2023-03-26T12:35:42.176Z,7.07
2023-03-26T12:38:36.014Z,6.22
2023-03-26T12:44:58.950Z,7.47
2023-03-26T12:48:00.105Z,4.65
2023-03-26T12:50:38.720Z,4.75
2023-03-26T12:53:58.137Z,8.43
2023-03-26T12:57:11.349Z,4.88
2023-03-26T12:59:56.768Z,6.60
2023-03-26T13:03:04.523Z,5.15
2023-03-26T13:06:18.112Z,9.48
2023-03-26T13:09:45.036Z,6.10
2023-03-26T13:13:12.380Z,5.50
2023-03-26T13:16:33.521Z,6.60
2023-03-26T13:19:34.608Z,5.65
2023-03-26T13:22:58.336Z,5.32
2023-03-26T13:25:58.504Z,7.45
2023-03-26T13:28:59.669Z,7.55
2023-03-26T13:32:17.608Z,9.27
2023-03-26T13:36:03.357Z,8.15
2023-03-26T13:42:23.691Z,11.05
2023-03-26T13:45:41.940Z,12.43
2023-03-26T13:48:39.621Z,11.18
2023-03-26T13:52:01.427Z,15.35
2023-03-26T13:55:27.335Z,15.70
2023-03-26T13:58:10.974Z,19.63
2023-03-26T14:01:44.101Z,12.88
2023-03-26T14:04:55.742Z,9.32
2023-03-26T14:12:33.069Z,12.30
2023-03-26T14:15:22.165Z,13.43
2023-03-26T14:22:36.253Z,22.75
2023-03-26T14:25:58.810Z,10.55
2023-03-26T14:29:56.771Z,13.30
2023-03-26T14:33:47.079Z,8.30
2023-03-26T14:37:27.747Z,9.18
2023-03-26T14:40:22.402Z,9.82
2023-03-26T14:43:58.968Z,10.10
2023-03-26T14:47:33.875Z,9.95
2023-03-26T14:50:38.456Z,11.90
2023-03-26T14:53:36.331Z,13.10
2023-03-26T14:56:39.031Z,11.93
2023-03-26T14:59:39.628Z,17.27
2023-03-26T15:02:22.806Z,10.15
2023-03-26T15:05:24.461Z,17.25
2023-03-26T15:08:39.018Z,12.00
2023-03-26T15:12:12.090Z,17.50
2023-03-26T15:15:17.012Z,21.05
2023-03-26T15:18:37.363Z,11.90
2023-03-26T15:21:47.652Z,14.25
2023-03-26T15:25:11.166Z,16.75
2023-03-26T15:28:45.845Z,14.65
2023-03-26T15:32:07.050Z,11.20
2023-03-26T15:35:32.306Z,9.00
2023-03-26T15:38:23.249Z,10.45
2023-03-26T15:41:50.371Z,6.55
2023-03-26T15:45:24.730Z,11.10
2023-03-26T15:48:16.562Z,7.88
2023-03-26T15:51:18.289Z,12.07
2023-03-26T15:54:46.731Z,20.08
2023-03-26T15:58:01.903Z,10.98
2023-03-26T16:00:37.654Z,11.48
2023-03-26T16:03:11.180Z,8.70
2023-03-26T16:06:09.150Z,13.27
2023-03-26T16:09:06.520Z,9.00
2023-03-26T16:12:31.980Z,16.98
2023-03-26T16:15:25.383Z,6.50
2023-03-26T16:18:19.448Z,7.68
2023-03-26T16:21:31.337Z,11.93
2023-03-26T16:24:27.005Z,6.32
2023-03-26T16:27:34.437Z,10.02
2023-03-26T16:30:01.584Z,8.70
2023-03-26T16:33:23.454Z,8.13
2023-03-26T16:36:04.771Z,8.95
2023-03-26T16:39:00.482Z,10.45
2023-03-26T16:41:33.721Z,11.95
2023-03-26T16:44:40.223Z,8.70
2023-03-26T16:48:09.163Z,8.63
2023-03-26T16:51:23.924Z,8.73
2023-03-26T16:54:48.255Z,12.25
2023-03-26T16:57:42.457Z,10.80
2023-03-26T17:00:42.705Z,12.90
2023-03-26T17:03:46.179Z,6.72
2023-03-26T17:06:45.751Z,10.68
2023-03-26T17:10:13.140Z,11.38
2023-03-26T17:13:05.461Z,10.80
2023-03-26T17:16:21.443Z,7.78
2023-03-26T17:19:36.018Z,14.73
2023-03-26T17:23:04.996Z,8.55
2023-03-26T17:26:05.973Z,8.68
2023-03-26T17:29:27.278Z,10.40
2023-03-26T17:32:04.678Z,6.85
2023-03-26T17:34:47.530Z,6.85
2023-03-26T17:37:23.828Z,5.68
2023-03-26T17:39:51.232Z,19.25
2023-03-26T17:42:36.189Z,9.65
2023-03-26T17:45:32.255Z,10.48
2023-03-26T17:48:26.343Z,10.85
2023-03-26T17:51:57.931Z,8.65
2023-03-26T17:54:46.640Z,8.82
2023-03-26T17:57:44.128Z,8.68
2023-03-26T18:00:29.953Z,8.77
2023-03-26T18:03:20.339Z,8.52
2023-03-26T18:06:40.898Z,11.88
2023-03-26T18:09:52.461Z,6.90
2023-03-26T18:12:42.501Z,12.18
2023-03-26T18:16:03.326Z,8.13
2023-03-26T18:18:46.540Z,11.73
2023-03-26T18:21:40.156Z,10.35
2023-03-26T18:24:18.395Z,3.20
2023-03-26T18:27:11.890Z,5.45
2023-03-26T18:30:13.958Z,7.43
2023-03-26T18:33:01.441Z,9.80
2023-03-26T18:35:57.438Z,6.65
2023-03-26T18:38:35.678Z,10.90
2023-03-26T18:41:21.234Z,8.90
2023-03-26T18:43:49.600Z,4.32
2023-03-26T18:46:17.646Z,5.63
2023-03-26T18:48:47.505Z,14.70
2023-03-26T18:51:22.986Z,10.23
2023-03-26T18:54:03.326Z,10.00
2023-03-26T18:56:43.416Z,5.95
2023-03-26T18:59:32.726Z,6.13
2023-03-26T19:02:17.402Z,6.10
2023-03-26T19:04:50.282Z,4.97
2023-03-26T19:07:29.184Z,5.78
2023-03-26T19:10:00.372Z,9.75
2023-03-26T19:12:34.201Z,5.18
2023-03-26T19:15:17.076Z,4.75
2023-03-26T19:17:56.860Z,7.90
2023-03-26T19:20:47.671Z,9.57
2023-03-26T19:23:28.677Z,7.03
2023-03-26T19:26:00.156Z,7.50
2023-03-26T19:28:48.965Z,4.32
2023-03-26T19:31:16.531Z,5.60
2023-03-26T19:33:53.403Z,9.02
2023-03-26T19:36:29.828Z,6.43
2023-03-26T19:39:34.671Z,7.00
2023-03-26T19:42:10.159Z,13.23
2023-03-26T19:44:42.354Z,8.10
2023-03-26T19:47:48.587Z,7.10
2023-03-26T19:50:30.347Z,5.00
2023-03-26T19:53:38.138Z,7.90
2023-03-26T19:56:15.332Z,6.88
2023-03-26T19:58:43.608Z,6.38
2023-03-26T20:01:30.475Z,7.63
2023-03-26T20:04:06.788Z,9.75
2023-03-26T20:06:50.556Z,5.13
2023-03-26T20:09:26.812Z,6.88
2023-03-26T20:12:01.190Z,6.82
2023-03-26T20:14:32.474Z,8.32
2023-03-26T20:17:12.709Z,6.10
2023-03-26T20:19:43.573Z,8.32
2023-03-26T20:22:20.113Z,6.88
2023-03-26T20:24:51.589Z,24.52
2023-03-26T20:27:22.872Z,9.60
2023-03-26T20:30:00.152Z,4.70
2023-03-26T20:32:29.018Z,6.30
2023-03-26T20:34:57.789Z,11.27
2023-03-26T20:37:27.271Z,10.40
2023-03-26T20:39:56.243Z,7.15
2023-03-26T20:42:24.043Z,8.25
2023-03-26T20:44:59.179Z,5.93
2023-03-26T20:47:34.462Z,6.72
2023-03-26T20:50:05.427Z,4.33
2023-03-26T20:52:35.794Z,6.13
2023-03-26T20:55:06.333Z,4.57
2023-03-26T20:57:34.944Z,6.55
2023-03-26T21:00:02.641Z,6.25
2023-03-26T21:02:33.124Z,6.50
2023-03-26T21:05:03.770Z,12.32
2023-03-26T21:07:32.304Z,5.57
2023-03-26T21:10:02.644Z,9.93
2023-03-26T21:12:44.580Z,12.48
2023-03-26T21:15:22.906Z,8.00
2023-03-26T21:17:54.098Z,8.90
2023-03-26T21:20:25.376Z,9.00
2023-03-26T21:27:34.436Z,6.55
2023-03-26T21:30:16.968Z,14.20
2023-03-26T21:32:47.452Z,9.35
2023-03-26T21:35:18.465Z,7.55
2023-03-26T21:37:48.806Z,6.93
2023-03-26T21:40:21.574Z,7.28
2023-03-26T21:43:12.723Z,6.53
2023-03-26T21:45:41.563Z,9.35
2023-03-26T21:48:11.080Z,8.30
2023-03-26T21:50:40.629Z,10.18
2023-03-26T21:53:16.304Z,5.88
2023-03-26T21:56:29.250Z,7.78
2023-03-26T22:00:07.166Z,6.38
2023-03-26T22:03:27.388Z,6.55
2023-03-26T22:06:17.752Z,10.60
2023-03-26T22:08:45.645Z,7.45
2023-03-26T22:11:14.219Z,11.55
2023-03-26T22:13:54.459Z,7.80
2023-03-26T22:16:27.601Z,7.20
2023-03-26T22:18:58.128Z,9.15
2023-03-26T22:21:28.331Z,9.65
2023-03-26T22:23:57.289Z,11.68
2023-03-26T22:26:27.029Z,10.82
2023-03-26T22:28:54.660Z,9.75
2023-03-26T22:31:26.588Z,11.55
2023-03-26T22:33:58.656Z,10.75
2023-03-26T22:36:27.521Z,11.93
2023-03-26T22:38:56.712Z,5.97
2023-03-26T22:41:25.034Z,5.95
2023-03-26T22:44:16.884Z,10.43
2023-03-26T22:46:53.317Z,11.88
2023-03-26T22:49:22.267Z,17.15
2023-03-26T22:51:50.369Z,9.55
2023-03-26T22:54:21.417Z,9.75
2023-03-26T22:56:49.764Z,11.52
2023-03-26T22:59:25.292Z,11.15
2023-03-26T23:01:53.380Z,8.40
2023-03-26T23:04:30.317Z,7.95
2023-03-26T23:07:04.185Z,7.72
2023-03-26T23:09:32.499Z,5.95
2023-03-26T23:12:04.228Z,5.68
2023-03-26T23:14:33.036Z,10.88
2023-03-26T23:17:01.578Z,6.43
2023-03-26T23:19:30.374Z,6.50
2023-03-26T23:21:58.841Z,8.35
2023-03-26T23:24:27.643Z,9.20
2023-03-26T23:26:55.741Z,10.48
2023-03-26T23:29:23.586Z,10.20
2023-03-26T23:31:59.022Z,10.00
2023-03-26T23:34:27.444Z,7.40
2023-03-26T23:36:58.043Z,8.90
2023-03-26T23:39:30.747Z,7.93
2023-03-26T23:42:03.448Z,7.00
2023-03-26T23:44:32.279Z,10.95
2023-03-26T23:47:00.536Z,8.00
2023-03-26T23:49:28.006Z,9.13
2023-03-26T23:51:55.619Z,12.43
2023-03-26T23:54:25.889Z,7.93
2023-03-26T23:56:55.036Z,4.97
2023-03-26T23:59:23.169Z,5.40
